createdAt,value
2018-11-26T00:00:29.880Z,121.03
2018-11-26T00:02:59.888Z,118.20
2018-11-26T00:05:29.797Z,119.97
2018-11-26T00:07:59.767Z,120.77
2018-11-26T00:10:40.484Z,125.80
2018-11-26T00:13:10.313Z,127.33
2018-11-26T00:15:40.235Z,123.30
2018-11-26T00:18:10.164Z,111.83
2018-11-26T00:20:40.150Z,119.97
2018-11-26T00:23:10.089Z,121.83
2018-11-26T00:25:40.149Z,130.77
2018-11-26T00:28:10.123Z,124.83
2018-11-26T00:30:40.243Z,125.23
2018-11-26T00:33:10.191Z,121.73
2018-11-26T00:35:40.199Z,124.07
2018-11-26T00:38:10.181Z,132.67
2018-11-26T00:40:40.170Z,128.30
2018-11-26T00:43:09.943Z,133.63
2018-11-26T00:45:40.063Z,130.13
2018-11-26T00:48:10.020Z,128.47
2018-11-26T00:50:39.890Z,126.83
2018-11-26T00:53:09.805Z,137.43
2018-11-26T00:55:39.835Z,131.37
2018-11-26T00:58:09.798Z,129.17
2018-11-26T01:00:39.770Z,132.00
2018-11-26T01:03:10.854Z,135.03
2018-11-26T01:05:41.721Z,140.57
2018-11-26T01:08:11.768Z,135.73
2018-11-26T01:10:41.633Z,125.73
2018-11-26T01:13:11.438Z,124.73
2018-11-26T01:15:41.429Z,126.90
2018-11-26T01:18:11.387Z,129.43
2018-11-26T01:20:41.412Z,127.67
2018-11-26T01:23:11.432Z,132.90
2018-11-26T01:25:41.469Z,134.03
2018-11-26T01:28:11.362Z,125.13
2018-11-26T01:30:41.216Z,132.50
2018-11-26T01:33:11.027Z,128.00
2018-11-26T01:35:41.039Z,132.67
2018-11-26T01:38:11.001Z,138.67
2018-11-26T01:40:45.975Z,126.40
2018-11-26T01:43:15.882Z,128.03
2018-11-26T01:45:45.768Z,126.77
2018-11-26T01:48:15.753Z,123.53
2018-11-26T01:50:45.650Z,123.97
2018-11-26T01:53:15.513Z,132.57
2018-11-26T01:55:45.414Z,124.80
2018-11-26T01:58:15.353Z,130.47
2018-11-26T02:00:45.270Z,130.20
2018-11-26T02:03:15.210Z,129.23
2018-11-26T02:05:45.145Z,126.80
2018-11-26T02:08:15.011Z,120.43
2018-11-26T02:10:44.743Z,120.90
2018-11-26T02:13:14.743Z,124.87
2018-11-26T02:15:44.752Z,122.27
2018-11-26T02:18:14.848Z,121.73
2018-11-26T02:20:44.894Z,125.87
2018-11-26T02:23:14.870Z,136.83
2018-11-26T02:25:44.925Z,124.63
2018-11-26T02:28:14.883Z,137.63
2018-11-26T02:30:44.598Z,131.50
2018-11-26T02:33:14.582Z,132.37
2018-11-26T02:35:44.553Z,127.10
2018-11-26T02:38:14.619Z,122.57
2018-11-26T02:40:44.540Z,118.50
2018-11-26T02:43:14.313Z,128.27
2018-11-26T02:45:44.288Z,115.33
2018-11-26T02:48:14.257Z,118.23
2018-11-26T02:50:44.038Z,116.10
2018-11-26T02:53:14.092Z,110.33
2018-11-26T02:55:43.999Z,124.00
2018-11-26T02:58:13.925Z,121.83
2018-11-26T03:00:46.580Z,118.30
2018-11-26T03:03:17.279Z,130.83
2018-11-26T03:05:47.213Z,127.60
2018-11-26T03:08:17.150Z,130.57
2018-11-26T03:10:46.899Z,133.67
2018-11-26T03:13:16.807Z,135.47
2018-11-26T03:15:46.774Z,131.43
2018-11-26T03:18:16.731Z,129.03
2018-11-26T03:20:46.629Z,128.53
2018-11-26T03:23:16.533Z,125.83
2018-11-26T03:25:46.467Z,129.20
2018-11-26T03:28:16.462Z,126.77
2018-11-26T03:30:46.267Z,129.23
2018-11-26T03:33:16.113Z,121.87
2018-11-26T03:35:46.211Z,116.17
2018-11-26T03:38:20.072Z,124.00
2018-11-26T03:40:50.039Z,122.67
2018-11-26T03:43:19.821Z,123.50
2018-11-26T03:45:49.740Z,118.17
2018-11-26T03:48:19.730Z,124.63
2018-11-26T03:50:49.621Z,117.80
2018-11-26T03:53:19.645Z,123.90
2018-11-26T03:55:49.668Z,121.63
2018-11-26T03:58:19.542Z,113.63
2018-11-26T04:00:53.465Z,122.90
2018-11-26T04:03:23.383Z,122.77
2018-11-26T04:05:53.340Z,115.90
2018-11-26T04:08:23.290Z,118.13
2018-11-26T04:10:53.339Z,113.73
2018-11-26T04:13:23.150Z,115.27
2018-11-26T04:15:53.101Z,119.70
2018-11-26T04:18:23.048Z,114.00
2018-11-26T04:20:53.043Z,117.33
2018-11-26T04:23:23.033Z,135.60
2018-11-26T04:25:53.065Z,129.83
2018-11-26T04:28:23.055Z,121.80
2018-11-26T04:30:52.867Z,117.87
2018-11-26T04:33:22.944Z,124.93
2018-11-26T04:35:52.916Z,130.03
2018-11-26T04:38:22.870Z,124.13
2018-11-26T04:40:52.758Z,125.70
2018-11-26T04:43:22.569Z,130.10
2018-11-26T04:45:52.527Z,128.73
2018-11-26T04:48:22.520Z,126.20
2018-11-26T04:50:52.318Z,124.80
2018-11-26T04:53:22.217Z,131.27
2018-11-26T04:55:52.573Z,135.03
2018-11-26T04:58:22.577Z,142.83
2018-11-26T05:00:52.573Z,129.40
2018-11-26T05:03:22.549Z,128.03
2018-11-26T05:05:52.533Z,132.03
2018-11-26T05:08:22.510Z,134.83
2018-11-26T05:10:52.322Z,135.57
2018-11-26T05:13:22.260Z,145.83
2018-11-26T05:15:52.294Z,142.40
2018-11-26T05:18:22.200Z,149.63
2018-11-26T05:20:52.096Z,149.57
2018-11-26T05:23:22.025Z,131.93
2018-11-26T05:25:51.940Z,142.73
2018-11-26T05:28:21.822Z,140.13
2018-11-26T05:30:51.584Z,155.70
2018-11-26T05:33:21.642Z,149.10
2018-11-26T05:35:51.779Z,142.83
2018-11-26T05:38:21.766Z,151.73
2018-11-26T05:40:52.295Z,152.83
2018-11-26T05:43:22.306Z,159.80
2018-11-26T05:45:52.141Z,145.70
2018-11-26T05:48:22.094Z,145.30
2018-11-26T05:50:51.856Z,162.97
2018-11-26T05:53:21.759Z,160.23
2018-11-26T05:55:52.145Z,157.30
2018-11-26T05:58:22.043Z,161.20
2018-11-26T06:00:52.194Z,162.43
2018-11-26T06:03:22.091Z,163.37
2018-11-26T06:05:52.205Z,152.53
2018-11-26T06:08:22.191Z,158.40
2018-11-26T06:10:51.988Z,166.20
2018-11-26T06:13:22.000Z,153.93
2018-11-26T06:15:52.096Z,151.20
2018-11-26T06:18:22.710Z,159.97
2018-11-26T06:20:52.832Z,156.00
2018-11-26T06:23:22.725Z,156.13
2018-11-26T06:25:53.035Z,166.20
2018-11-26T06:28:22.933Z,157.70
2018-11-26T06:30:52.769Z,160.07
2018-11-26T06:33:22.708Z,152.80
2018-11-26T06:35:52.806Z,157.70
2018-11-26T06:38:22.790Z,160.93
2018-11-26T06:40:52.658Z,152.13
2018-11-26T06:43:22.655Z,159.30
2018-11-26T06:45:52.764Z,163.43
2018-11-26T06:48:22.811Z,169.50
2018-11-26T06:50:52.640Z,173.07
2018-11-26T06:53:22.718Z,164.50
2018-11-26T06:55:52.837Z,159.33
2018-11-26T06:58:22.926Z,156.47
2018-11-26T07:00:52.978Z,158.97
2018-11-26T07:03:22.995Z,154.60
2018-11-26T07:05:52.836Z,171.13
2018-11-26T07:08:22.881Z,159.60
2018-11-26T07:10:52.767Z,175.00
2018-11-26T07:13:22.613Z,163.13
2018-11-26T07:15:52.554Z,172.07
2018-11-26T07:18:22.568Z,163.60
2018-11-26T07:20:52.535Z,171.77
2018-11-26T07:23:22.559Z,153.37
2018-11-26T07:25:52.609Z,176.40
2018-11-26T07:28:22.799Z,169.83
2018-11-26T07:30:52.648Z,182.73
2018-11-26T07:33:22.691Z,177.83
2018-11-26T07:35:52.640Z,174.77
2018-11-26T07:38:22.643Z,159.50
2018-11-26T07:40:52.718Z,168.43
2018-11-26T07:43:22.770Z,165.00
2018-11-26T07:45:52.920Z,159.53
2018-11-26T07:48:22.969Z,174.90
2018-11-26T07:50:52.766Z,174.93
2018-11-26T07:53:22.851Z,173.80
2018-11-26T07:55:52.762Z,177.10
2018-11-26T07:58:22.871Z,166.33
2018-11-26T08:00:52.930Z,171.03
2018-11-26T08:03:23.008Z,153.60
2018-11-26T08:05:53.164Z,147.93
2018-11-26T08:08:23.093Z,173.50
2018-11-26T08:10:53.244Z,161.27
2018-11-26T08:13:23.402Z,174.10
2018-11-26T08:15:53.275Z,181.07
2018-11-26T08:18:23.370Z,144.17
2018-11-26T08:20:53.434Z,158.47
2018-11-26T08:23:23.634Z,157.87
2018-11-26T08:25:54.352Z,166.57
2018-11-26T08:28:24.414Z,162.90
2018-11-26T08:30:54.330Z,180.40
2018-11-26T08:33:24.346Z,166.47
2018-11-26T08:35:59.595Z,167.23
2018-11-26T08:38:34.878Z,184.00
2018-11-26T08:41:09.223Z,165.17
2018-11-26T08:43:50.381Z,158.90
2018-11-26T08:46:25.587Z,158.23
2018-11-26T08:49:00.867Z,153.97
2018-11-26T08:51:31.022Z,170.43
2018-11-26T08:54:01.141Z,160.07
2018-11-26T08:56:31.339Z,172.97
2018-11-26T08:59:01.472Z,200.27
2018-11-26T09:01:39.618Z,201.80
2018-11-26T09:04:10.746Z,190.07
2018-11-26T09:06:41.862Z,178.47
2018-11-26T09:09:11.694Z,172.10
2018-11-26T09:11:41.589Z,173.87
2018-11-26T09:14:11.568Z,172.23
2018-11-26T09:16:41.694Z,179.00
2018-11-26T09:19:11.590Z,206.73
2018-11-26T09:21:41.758Z,195.40
2018-11-26T09:24:11.646Z,184.23
2018-11-26T09:26:41.704Z,164.77
2018-11-26T09:29:11.741Z,155.37
2018-11-26T09:31:41.618Z,144.77
2018-11-26T09:34:11.686Z,202.70
2018-11-26T09:36:41.954Z,186.40
2018-11-26T09:39:12.835Z,191.13
2018-11-26T09:41:42.849Z,173.10
2018-11-26T09:44:12.673Z,184.20
2018-11-26T09:46:42.901Z,182.73
2018-11-26T09:49:12.847Z,154.60
2018-11-26T09:51:42.752Z,149.50
2018-11-26T09:54:12.683Z,193.97
2018-11-26T09:56:42.696Z,143.90
2018-11-26T09:59:12.728Z,160.40
2018-11-26T10:01:42.788Z,159.83
2018-11-26T10:04:12.715Z,146.13
2018-11-26T10:06:42.675Z,149.37
2018-11-26T10:09:12.758Z,164.07
2018-11-26T10:11:42.592Z,162.37
2018-11-26T10:14:12.524Z,140.93
2018-11-26T10:16:42.672Z,151.60
2018-11-26T10:19:12.663Z,137.07
2018-11-26T10:21:42.688Z,151.93
2018-11-26T10:24:12.622Z,141.67
2018-11-26T10:26:42.744Z,157.90
2018-11-26T10:29:12.911Z,150.10
2018-11-26T10:31:42.846Z,158.80
2018-11-26T10:34:12.984Z,154.00
2018-11-26T10:36:42.918Z,125.90
2018-11-26T10:39:13.022Z,130.37
2018-11-26T10:41:43.059Z,152.67
2018-11-26T10:44:13.178Z,148.77
2018-11-26T10:46:43.234Z,156.17
2018-11-26T10:49:13.193Z,151.40
2018-11-26T10:51:43.031Z,149.50
2018-11-26T10:54:13.190Z,145.07
2018-11-26T10:56:43.094Z,149.33
2018-11-26T10:59:13.269Z,162.40
2018-11-26T11:01:47.319Z,149.30
2018-11-26T11:04:17.344Z,167.77
2018-11-26T11:06:47.260Z,148.07
2018-11-26T11:09:17.189Z,168.03
2018-11-26T11:11:47.058Z,172.93
2018-11-26T11:14:17.208Z,153.90
2018-11-26T11:16:47.152Z,154.40
2018-11-26T11:19:17.153Z,171.97
2018-11-26T11:21:47.191Z,154.73
2018-11-26T11:24:17.326Z,175.67
2018-11-26T11:26:47.340Z,179.47
2018-11-26T11:29:17.440Z,145.40
2018-11-26T11:31:47.374Z,164.20
2018-11-26T11:34:17.588Z,166.80
2018-11-26T11:36:47.893Z,182.80
2018-11-26T11:39:17.820Z,168.80
2018-11-26T11:41:47.992Z,163.23
2018-11-26T11:44:22.108Z,178.03
2018-11-26T11:46:52.096Z,178.63
2018-11-26T11:49:22.151Z,180.50
2018-11-26T11:51:52.062Z,189.03
2018-11-26T11:54:22.040Z,195.83
2018-11-26T11:56:52.098Z,177.20
2018-11-26T11:59:21.991Z,166.13
2018-11-26T12:01:52.007Z,178.57
2018-11-26T12:04:22.162Z,197.13
2018-11-26T12:06:52.418Z,214.17
2018-11-26T12:09:22.589Z,181.77
2018-11-26T12:11:52.550Z,165.07
2018-11-26T12:14:22.615Z,167.47
2018-11-26T12:16:52.765Z,181.20
2018-11-26T12:19:22.704Z,179.57
2018-11-26T12:21:52.830Z,201.10
2018-11-26T12:24:22.877Z,189.63
2018-11-26T12:26:52.981Z,198.57
2018-11-26T12:29:23.326Z,194.20
2018-11-26T12:31:53.459Z,202.17
2018-11-26T12:34:23.435Z,184.30
2018-11-26T12:36:57.753Z,189.73
2018-11-26T12:39:23.841Z,191.53
2018-11-26T12:41:54.158Z,172.37
2018-11-26T12:44:24.545Z,176.47
2018-11-26T12:46:54.845Z,161.83
2018-11-26T12:49:25.071Z,167.40
2018-11-26T12:51:54.929Z,169.60
2018-11-26T12:54:25.787Z,152.97
2018-11-26T12:56:55.150Z,156.80
2018-11-26T12:59:25.110Z,155.07
2018-11-26T13:01:55.089Z,159.40
2018-11-26T13:04:24.844Z,181.47
2018-11-26T13:06:54.679Z,169.17
2018-11-26T13:09:24.580Z,187.77
2018-11-26T13:11:54.275Z,159.20
2018-11-26T13:14:24.088Z,166.27
2018-11-26T13:16:54.083Z,151.30
2018-11-26T13:19:24.241Z,141.47
2018-11-26T13:21:54.028Z,165.23
2018-11-26T13:24:23.917Z,134.27
2018-11-26T13:26:53.822Z,161.03
2018-11-26T13:29:24.013Z,155.97
2018-11-26T13:31:53.860Z,162.67
2018-11-26T13:34:23.831Z,173.10
2018-11-26T13:36:54.012Z,173.20
2018-11-26T13:39:24.057Z,160.43
2018-11-26T13:41:54.155Z,165.40
2018-11-26T13:44:24.278Z,164.00
2018-11-26T13:46:54.360Z,169.03
2018-11-26T13:49:24.550Z,163.20
2018-11-26T13:51:54.393Z,161.53
2018-11-26T13:54:24.465Z,168.13
2018-11-26T13:56:54.581Z,157.63
2018-11-26T13:59:24.535Z,157.53
2018-11-26T14:01:54.632Z,156.57
2018-11-26T14:04:24.802Z,151.70
2018-11-26T14:06:54.845Z,152.70
2018-11-26T14:09:24.749Z,150.00
2018-11-26T14:11:54.560Z,159.17
2018-11-26T14:14:24.614Z,162.30
2018-11-26T14:16:54.626Z,159.73
2018-11-26T14:19:24.658Z,155.47
2018-11-26T14:21:54.625Z,167.93
2018-11-26T14:24:24.836Z,154.47
2018-11-26T14:26:54.822Z,183.10
2018-11-26T14:29:24.923Z,179.57
2018-11-26T14:31:54.977Z,165.47
2018-11-26T14:34:24.987Z,159.17
2018-11-26T14:36:55.026Z,169.30
2018-11-26T14:39:24.938Z,178.57
2018-11-26T14:41:54.938Z,159.87
2018-11-26T14:44:24.860Z,148.40
2018-11-26T14:46:54.893Z,144.00
2018-11-26T14:49:24.894Z,138.07
2018-11-26T14:51:54.663Z,133.63
2018-11-26T14:54:24.650Z,137.43
2018-11-26T14:56:54.617Z,129.37
2018-11-26T14:59:24.648Z,126.53
2018-11-26T15:01:54.837Z,107.67
2018-11-26T15:04:24.756Z,130.60
2018-11-26T15:06:54.771Z,108.50
2018-11-26T15:09:24.804Z,115.23
2018-11-26T15:11:54.676Z,132.00
2018-11-26T15:14:24.823Z,121.50
2018-11-26T15:16:54.905Z,106.80
2018-11-26T15:19:26.693Z,113.90
2018-11-26T15:21:56.776Z,112.87
2018-11-26T15:24:26.949Z,97.73
2018-11-26T15:26:57.069Z,113.23
2018-11-26T15:29:27.242Z,99.57
2018-11-26T15:31:57.146Z,98.17
2018-11-26T15:34:27.339Z,95.30
2018-11-26T15:36:57.518Z,111.37
2018-11-26T15:39:27.700Z,105.93
2018-11-26T15:41:57.590Z,108.27
2018-11-26T15:44:27.508Z,114.93
2018-11-26T15:46:57.312Z,102.77
2018-11-26T15:49:27.266Z,107.47
2018-11-26T15:51:57.221Z,106.23
2018-11-26T15:54:27.762Z,103.07
2018-11-26T15:56:57.711Z,107.43
2018-11-26T15:59:27.771Z,110.67
2018-11-26T16:01:57.679Z,111.47
2018-11-26T16:04:27.710Z,116.00
2018-11-26T16:06:57.867Z,112.43
2018-11-26T16:09:27.901Z,117.37
2018-11-26T16:11:57.700Z,119.97
2018-11-26T16:14:27.598Z,110.53
2018-11-26T16:16:57.484Z,112.50
2018-11-26T16:19:27.431Z,115.13
2018-11-26T16:21:57.454Z,118.50
2018-11-26T16:24:27.495Z,120.23
2018-11-26T16:26:57.474Z,112.50
2018-11-26T16:29:27.356Z,114.60
2018-11-26T16:31:57.234Z,116.17
2018-11-26T16:34:27.385Z,127.13
2018-11-26T16:36:57.473Z,133.83
2018-11-26T16:39:27.502Z,131.47
2018-11-26T16:41:57.634Z,137.63
2018-11-26T16:44:27.616Z,132.27
2018-11-26T16:46:57.415Z,124.53
2018-11-26T16:49:27.409Z,118.80
2018-11-26T16:51:57.188Z,113.30
2018-11-26T16:54:27.043Z,111.97
2018-11-26T16:56:57.046Z,119.57
2018-11-26T16:59:26.988Z,93.57
2018-11-26T17:01:56.963Z,106.17
2018-11-26T17:04:26.923Z,107.73
2018-11-26T17:06:56.898Z,94.40
2018-11-26T17:09:26.917Z,111.20
2018-11-26T17:11:56.738Z,109.27
2018-11-26T17:14:26.753Z,130.63
2018-11-26T17:16:56.593Z,156.50
2018-11-26T17:19:26.500Z,143.40
2018-11-26T17:21:56.413Z,144.50
2018-11-26T17:24:26.558Z,132.37
2018-11-26T17:26:56.640Z,148.73
2018-11-26T17:29:26.759Z,138.63
2018-11-26T17:31:56.625Z,149.73
2018-11-26T17:34:26.742Z,154.83
2018-11-26T17:36:57.000Z,146.53
2018-11-26T17:39:27.071Z,138.27
2018-11-26T17:41:57.211Z,128.80
2018-11-26T17:44:27.302Z,124.10
2018-11-26T17:46:57.135Z,119.03
2018-11-26T17:49:27.192Z,111.77
2018-11-26T17:51:57.010Z,108.53
2018-11-26T17:54:27.039Z,116.40
2018-11-26T17:56:57.087Z,109.40
2018-11-26T17:59:27.196Z,107.40
2018-11-26T18:01:57.282Z,107.50
2018-11-26T18:04:27.353Z,126.03
2018-11-26T18:06:57.488Z,119.30
2018-11-26T18:09:27.636Z,119.33
2018-11-26T18:11:57.395Z,114.83
2018-11-26T18:14:27.823Z,127.37
2018-11-26T18:16:57.689Z,121.50
2018-11-26T18:19:27.818Z,118.77
2018-11-26T18:21:58.015Z,113.07
2018-11-26T18:24:28.037Z,112.73
2018-11-26T18:26:58.069Z,128.50
2018-11-26T18:29:28.062Z,121.47
2018-11-26T18:34:59.577Z,129.33
2018-11-26T18:37:29.702Z,125.33
2018-11-26T18:39:59.756Z,135.40
2018-11-26T18:42:29.716Z,131.33
2018-11-26T18:44:59.707Z,134.67
2018-11-26T18:47:29.562Z,145.60
2018-11-26T18:49:59.374Z,145.03
2018-11-26T18:52:29.140Z,149.37
2018-11-26T18:54:59.185Z,152.90
2018-11-26T18:57:29.115Z,147.30
2018-11-26T18:59:59.154Z,144.97
2018-11-26T19:02:29.220Z,139.27
2018-11-26T19:04:59.372Z,149.67
2018-11-26T19:07:29.352Z,148.83
2018-11-26T19:09:59.185Z,132.90
2018-11-26T19:12:28.949Z,144.57
2018-11-26T19:14:59.342Z,122.43
2018-11-26T19:17:29.594Z,126.30
2018-11-26T19:19:59.611Z,123.33
2018-11-26T19:22:29.828Z,115.93
2018-11-26T19:24:59.899Z,113.93
2018-11-26T19:27:30.021Z,112.80
2018-11-26T19:29:59.862Z,106.40
2018-11-26T19:32:29.707Z,102.43
2018-11-26T19:34:59.762Z,108.57
2018-11-26T19:37:30.010Z,101.87
2018-11-26T19:40:00.753Z,111.27
2018-11-26T19:42:30.956Z,115.60
2018-11-26T19:45:01.041Z,116.97
2018-11-26T19:47:30.951Z,115.80
2018-11-26T19:50:02.468Z,137.40
2018-11-26T19:52:31.056Z,126.60
2018-11-26T19:55:01.230Z,131.60
2018-11-26T19:57:31.438Z,130.47
2018-11-26T20:00:01.424Z,125.10
2018-11-26T20:02:31.804Z,118.83
2018-11-26T20:05:02.771Z,115.33
2018-11-26T20:07:33.211Z,99.57
2018-11-26T20:10:03.094Z,116.93
2018-11-26T20:12:33.001Z,134.40
2018-11-26T20:15:03.293Z,126.03
2018-11-26T20:17:33.245Z,129.87
2018-11-26T20:20:04.309Z,126.40
2018-11-26T20:22:33.550Z,119.87
2018-11-26T20:25:03.670Z,123.40
2018-11-26T20:27:34.099Z,126.23
2018-11-26T20:30:04.033Z,121.30
2018-11-26T20:32:33.941Z,120.90
2018-11-26T20:35:04.138Z,113.70
2018-11-26T20:37:34.618Z,110.83
2018-11-26T20:40:06.116Z,114.70
2018-11-26T20:42:36.242Z,110.80
2018-11-26T20:45:12.548Z,106.23
2018-11-26T20:47:42.592Z,105.60
2018-11-26T20:50:26.380Z,103.50
2018-11-26T20:52:56.308Z,100.27
2018-11-26T20:55:26.893Z,107.27
2018-11-26T20:57:57.484Z,104.80
2018-11-26T21:00:28.960Z,100.20
2018-11-26T21:03:05.934Z,103.30
2018-11-26T21:05:36.316Z,101.60
2018-11-26T21:08:06.664Z,102.40
2018-11-26T21:10:36.671Z,101.67
2018-11-26T21:13:07.091Z,107.60
2018-11-26T21:15:37.269Z,100.10
2018-11-26T21:18:13.709Z,102.57
2018-11-26T21:20:47.238Z,105.73
2018-11-26T21:23:33.767Z,98.70
2018-11-26T21:26:05.637Z,104.60
2018-11-26T21:28:35.734Z,116.67
2018-11-26T21:31:06.097Z,108.77
2018-11-26T21:33:36.255Z,106.83
2018-11-26T21:36:06.574Z,108.10
2018-11-26T21:38:38.792Z,107.17
2018-11-26T21:41:08.923Z,106.07
2018-11-26T21:43:38.984Z,108.60
2018-11-26T21:46:09.465Z,99.70
2018-11-26T21:48:39.650Z,107.47
2018-11-26T21:51:09.506Z,100.60
2018-11-26T21:53:39.331Z,103.60
2018-11-26T21:56:09.433Z,98.90
2018-11-26T21:58:39.451Z,101.27
2018-11-26T22:07:58.072Z,91.27
2018-11-26T22:10:27.906Z,98.73
2018-11-26T22:12:57.769Z,93.87
2018-11-26T22:15:27.823Z,104.67
2018-11-26T22:17:57.683Z,96.60
2018-11-26T22:20:29.324Z,97.87
2018-11-26T22:22:59.404Z,101.17
2018-11-26T22:25:29.364Z,98.03
2018-11-26T22:27:59.504Z,94.00
2018-11-26T22:30:32.923Z,91.50
2018-11-26T22:33:02.842Z,89.37
2018-11-26T22:35:33.000Z,93.57
2018-11-26T22:38:03.122Z,89.93
2018-11-26T22:40:33.161Z,86.10
2018-11-26T22:43:03.317Z,77.83
2018-11-26T22:45:34.276Z,94.63
2018-11-26T22:48:07.841Z,96.37
2018-11-26T22:50:38.694Z,95.73
2018-11-26T22:53:09.605Z,82.10
2018-11-26T22:55:39.544Z,90.57
2018-11-26T22:58:11.879Z,83.47
2018-11-26T23:00:51.204Z,95.60
2018-11-26T23:03:22.610Z,110.00
2018-11-26T23:05:52.529Z,106.27
2018-11-26T23:08:22.454Z,96.33
2018-11-26T23:10:52.226Z,97.27
2018-11-26T23:13:22.068Z,97.70
2018-11-26T23:15:52.165Z,104.63
2018-11-26T23:18:21.968Z,111.37
2018-11-26T23:20:52.143Z,103.43
2018-11-26T23:23:22.180Z,101.83
2018-11-26T23:25:52.460Z,110.93
2018-11-26T23:28:22.421Z,105.40
2018-11-26T23:30:52.223Z,100.73
2018-11-26T23:33:21.998Z,95.57
2018-11-26T23:35:51.962Z,102.23
2018-11-26T23:38:21.970Z,99.80
2018-11-26T23:40:51.685Z,103.10
2018-11-26T23:43:21.589Z,98.17
2018-11-26T23:45:51.531Z,98.97
2018-11-26T23:48:21.372Z,102.40
2018-11-26T23:50:51.164Z,97.83
2018-11-26T23:53:21.003Z,96.90
2018-11-26T23:55:50.966Z,104.93
2018-11-26T23:58:20.969Z,107.93
